createdAt,value
2023-02-17T00:00:26.865Z,8.30
2023-02-17T00:04:29.956Z,7.97
2023-02-17T00:08:31.378Z,9.40
2023-02-17T00:12:33.127Z,9.07
2023-02-17T00:16:34.473Z,8.93
2023-02-17T00:20:35.753Z,8.43
2023-02-17T00:24:39.130Z,8.17
2023-02-17T00:28:40.997Z,6.63
2023-02-17T00:32:42.331Z,7.50
2023-02-17T00:36:43.657Z,8.20
2023-02-17T00:40:45.179Z,7.60
2023-02-17T00:44:46.531Z,9.20
2023-02-17T00:48:49.547Z,7.30
2023-02-17T00:52:50.906Z,7.00
2023-02-17T00:56:52.303Z,6.90
2023-02-17T01:00:56.529Z,7.40
2023-02-17T01:04:57.931Z,6.83
2023-02-17T01:08:59.525Z,8.03
2023-02-17T01:13:00.868Z,8.47
2023-02-17T01:17:02.236Z,9.17
2023-02-17T01:21:03.666Z,8.00
2023-02-17T01:25:05.470Z,7.80
2023-02-17T01:29:07.880Z,7.80
2023-02-17T01:33:09.811Z,6.07
2023-02-17T01:37:11.174Z,5.87
2023-02-17T01:41:13.661Z,6.50
2023-02-17T01:45:17.811Z,5.70
2023-02-17T01:49:31.591Z,5.70
2023-02-17T01:53:37.123Z,5.50
2023-02-17T01:57:40.576Z,6.10
2023-02-17T02:01:42.160Z,5.93
2023-02-17T02:05:43.827Z,6.27
2023-02-17T02:09:53.759Z,6.20
2023-02-17T02:13:56.070Z,7.00
2023-02-17T02:18:03.339Z,7.10
2023-02-17T02:22:13.611Z,8.53
2023-02-17T02:26:38.698Z,8.40
2023-02-17T02:31:01.543Z,8.83
2023-02-17T02:35:20.458Z,8.77
2023-02-17T02:39:27.058Z,9.27
2023-02-17T02:43:30.030Z,9.37
2023-02-17T02:47:31.362Z,9.17
2023-02-17T02:51:42.983Z,9.57
2023-02-17T02:55:58.692Z,10.10
2023-02-17T03:00:10.494Z,9.53
2023-02-17T03:04:20.068Z,9.00
2023-02-17T03:08:56.654Z,9.20
2023-02-17T03:12:58.177Z,8.80
2023-02-17T03:16:59.540Z,9.07
2023-02-17T03:21:15.481Z,9.03
2023-02-17T03:25:16.916Z,9.40
2023-02-17T03:29:18.490Z,8.97
2023-02-17T03:33:19.907Z,8.70
2023-02-17T03:37:21.524Z,8.13
2023-02-17T03:41:23.261Z,8.07
2023-02-17T03:45:25.205Z,8.37
2023-02-17T03:49:26.552Z,8.47
2023-02-17T03:53:27.818Z,8.20
2023-02-17T03:57:29.268Z,8.80
2023-02-17T04:01:30.629Z,7.97
2023-02-17T04:05:32.096Z,8.53
2023-02-17T04:09:33.494Z,8.17
2023-02-17T04:13:35.540Z,8.00
2023-02-17T04:17:37.985Z,7.90
2023-02-17T04:21:39.323Z,8.07
2023-02-17T04:25:41.375Z,8.00
2023-02-17T04:29:42.811Z,7.83
2023-02-17T04:33:44.168Z,7.57
2023-02-17T04:37:45.477Z,7.63
2023-02-17T04:41:46.834Z,7.70
2023-02-17T04:45:48.214Z,7.57
2023-02-17T04:49:49.525Z,7.57
2023-02-17T04:53:51.209Z,7.70
2023-02-17T04:57:52.584Z,7.33
2023-02-17T05:01:54.022Z,7.20
2023-02-17T05:05:55.415Z,7.60
2023-02-17T05:09:56.800Z,6.57
2023-02-17T05:13:58.137Z,7.20
2023-02-17T05:17:59.437Z,7.00
2023-02-17T05:22:01.071Z,7.10
2023-02-17T05:26:02.416Z,6.90
2023-02-17T05:30:04.665Z,6.80
2023-02-17T05:34:06.084Z,7.23
2023-02-17T05:38:07.430Z,6.40
2023-02-17T05:42:08.992Z,6.70
2023-02-17T05:46:10.650Z,6.60
2023-02-17T05:50:12.191Z,6.97
2023-02-17T05:54:13.531Z,6.67
2023-02-17T05:58:15.110Z,6.83
2023-02-17T06:02:16.406Z,6.50
2023-02-17T06:06:17.790Z,6.33
2023-02-17T06:10:19.192Z,6.60
2023-02-17T06:14:20.452Z,6.17
2023-02-17T06:18:21.761Z,5.90
2023-02-17T06:22:23.065Z,5.90
2023-02-17T06:26:24.462Z,5.70
2023-02-17T06:30:25.935Z,5.73
2023-02-17T06:34:27.574Z,6.07
2023-02-17T06:38:28.895Z,5.87
2023-02-17T06:42:30.175Z,6.03
2023-02-17T06:46:31.526Z,5.67
2023-02-17T06:50:32.994Z,6.43
2023-02-17T06:54:34.306Z,5.80
2023-02-17T06:58:37.231Z,5.70
2023-02-17T07:02:39.490Z,6.20
2023-02-17T07:06:41.066Z,6.37
2023-02-17T07:10:43.019Z,6.07
2023-02-17T07:14:44.339Z,6.63
2023-02-17T07:18:45.685Z,6.53
2023-02-17T07:22:47.092Z,7.00
2023-02-17T07:26:48.636Z,6.00
2023-02-17T07:30:49.934Z,6.40
2023-02-17T07:34:51.347Z,6.10
2023-02-17T07:38:52.806Z,5.67
2023-02-17T07:42:54.435Z,6.30
2023-02-17T07:46:55.908Z,6.47
2023-02-17T07:50:57.382Z,5.80
2023-02-17T07:54:58.700Z,5.97
2023-02-17T07:59:00.121Z,6.00
2023-02-17T08:03:01.458Z,5.83
2023-02-17T08:07:02.822Z,5.30
2023-02-17T08:11:23.141Z,6.10
2023-02-17T08:15:24.498Z,5.77
2023-02-17T08:19:28.380Z,5.70
2023-02-17T08:23:31.432Z,4.63
2023-02-17T08:27:32.852Z,5.37
2023-02-17T08:31:36.285Z,4.77
2023-02-17T08:35:37.704Z,4.83
2023-02-17T08:39:39.012Z,5.10
2023-02-17T08:43:41.543Z,4.83
2023-02-17T08:47:43.140Z,5.00
2023-02-17T08:51:45.213Z,4.43
2023-02-17T08:55:49.415Z,4.50
2023-02-17T08:59:51.213Z,4.17
2023-02-17T09:03:55.645Z,3.80
2023-02-17T09:07:57.014Z,4.67
2023-02-17T09:11:58.806Z,3.80
2023-02-17T09:16:00.340Z,4.43
2023-02-17T09:20:01.704Z,4.03
2023-02-17T09:24:03.261Z,3.80
2023-02-17T09:28:05.145Z,3.70
2023-02-17T09:32:08.373Z,2.60
2023-02-17T09:36:12.837Z,2.50
2023-02-17T09:40:28.108Z,2.40
2023-02-17T09:44:41.917Z,3.10
2023-02-17T09:48:46.326Z,3.15
2023-02-17T09:52:58.269Z,5.88
2023-02-17T09:57:01.717Z,3.55
2023-02-17T10:01:10.616Z,3.42
2023-02-17T10:05:16.639Z,3.00
2023-02-17T10:09:28.055Z,3.25
2023-02-17T10:13:33.606Z,3.50
2023-02-17T10:18:05.608Z,1.90
2023-02-17T10:22:18.327Z,2.92
2023-02-17T10:26:33.140Z,3.53
2023-02-17T10:30:59.624Z,3.05
2023-02-17T10:35:22.836Z,3.13
2023-02-17T10:39:57.088Z,2.80
2023-02-17T10:44:00.011Z,2.50
2023-02-17T10:48:09.459Z,2.25
2023-02-17T10:52:23.059Z,1.85
2023-02-17T10:56:34.175Z,1.90
2023-02-17T11:00:35.503Z,2.10
2023-02-17T11:04:44.836Z,1.88
2023-02-17T11:08:49.511Z,2.03
2023-02-17T11:12:51.725Z,3.67
2023-02-17T11:16:59.389Z,3.03
2023-02-17T11:21:09.896Z,2.03
2023-02-17T11:25:26.490Z,2.00
2023-02-17T11:29:29.320Z,1.90
2023-02-17T11:33:39.142Z,1.77
2023-02-17T11:37:43.421Z,1.77
2023-02-17T11:41:44.775Z,1.70
2023-02-17T11:45:51.871Z,2.10
2023-02-17T11:49:59.585Z,2.38
2023-02-17T11:54:25.524Z,2.20
2023-02-17T11:58:32.570Z,2.22
2023-02-17T12:02:55.698Z,2.28
2023-02-17T12:07:10.060Z,2.03
2023-02-17T12:11:27.119Z,1.80
2023-02-17T12:15:39.830Z,2.00
2023-02-17T12:19:53.083Z,1.77
2023-02-17T12:24:18.929Z,2.20
2023-02-17T12:28:41.430Z,2.08
2023-02-17T12:33:02.472Z,1.80
2023-02-17T12:37:05.939Z,2.38
2023-02-17T12:41:13.072Z,2.00
2023-02-17T12:45:19.285Z,1.85
2023-02-17T12:49:36.773Z,1.65
2023-02-17T12:53:47.126Z,1.90
2023-02-17T12:57:58.184Z,1.80
2023-02-17T13:02:10.348Z,2.60
2023-02-17T13:06:14.637Z,2.83
2023-02-17T13:10:42.288Z,2.50
2023-02-17T13:14:49.376Z,2.30
2023-02-17T13:18:52.286Z,2.80
2023-02-17T13:23:06.244Z,2.70
2023-02-17T13:27:31.177Z,3.03
2023-02-17T13:31:43.936Z,2.90
2023-02-17T13:35:45.372Z,3.10
2023-02-17T13:39:47.021Z,2.80
2023-02-17T13:43:48.601Z,2.30
2023-02-17T13:47:52.600Z,3.50
2023-02-17T13:51:55.268Z,2.90
2023-02-17T13:56:00.490Z,3.03
2023-02-17T14:00:10.548Z,2.20
2023-02-17T14:04:21.890Z,2.67
2023-02-17T14:08:31.962Z,2.78
2023-02-17T14:12:33.438Z,2.60
2023-02-17T14:16:37.925Z,2.87
2023-02-17T14:20:39.349Z,2.40
2023-02-17T14:24:40.771Z,2.63
2023-02-17T14:28:52.738Z,2.67
2023-02-17T14:33:04.817Z,2.40
2023-02-17T14:37:23.949Z,2.40
2023-02-17T14:41:26.262Z,2.70
2023-02-17T14:45:27.790Z,3.10
2023-02-17T14:49:29.095Z,3.57
2023-02-17T14:53:36.375Z,3.20
2023-02-17T14:57:37.709Z,3.77
2023-02-17T15:01:40.496Z,3.03
2023-02-17T15:05:42.298Z,3.40
2023-02-17T15:09:48.837Z,2.00
2023-02-17T15:13:50.153Z,1.80
2023-02-17T15:17:51.490Z,1.80
2023-02-17T15:21:52.862Z,2.00
2023-02-17T15:25:55.959Z,1.70
2023-02-17T15:29:57.324Z,2.40
2023-02-17T15:34:00.352Z,2.67
2023-02-17T15:38:01.672Z,2.20
2023-02-17T15:42:07.575Z,2.23
2023-02-17T15:46:17.690Z,2.33
2023-02-17T15:50:22.931Z,2.00
2023-02-17T15:54:24.327Z,1.60
2023-02-17T15:58:25.737Z,1.73
2023-02-17T16:02:27.342Z,1.67
2023-02-17T16:06:29.161Z,1.67
2023-02-17T16:10:32.205Z,1.50
2023-02-17T16:14:36.466Z,1.43
2023-02-17T16:18:37.818Z,1.80
2023-02-17T16:22:39.130Z,1.70
2023-02-17T16:26:41.980Z,1.70
2023-02-17T16:30:43.582Z,1.50
2023-02-17T16:34:44.921Z,2.13
2023-02-17T16:38:53.155Z,2.30
2023-02-17T16:42:54.549Z,2.80
2023-02-17T16:46:56.860Z,2.60
2023-02-17T16:50:58.221Z,2.90
2023-02-17T16:54:59.565Z,3.43
2023-02-17T16:59:00.883Z,2.33
2023-02-17T17:03:02.237Z,2.40
2023-02-17T17:07:03.777Z,2.43
2023-02-17T17:11:05.215Z,2.47
2023-02-17T17:15:07.117Z,2.50
2023-02-17T17:19:13.738Z,3.47
2023-02-17T17:23:15.801Z,2.83
2023-02-17T17:27:17.126Z,2.47
2023-02-17T17:31:20.157Z,2.30
2023-02-17T17:35:21.565Z,2.80
2023-02-17T17:39:23.710Z,2.27
2023-02-17T17:43:25.011Z,2.27
2023-02-17T17:47:30.258Z,2.10
2023-02-17T17:51:33.746Z,2.60
2023-02-17T17:55:35.467Z,1.87
2023-02-17T17:59:36.826Z,2.97
2023-02-17T18:03:42.194Z,2.30
2023-02-17T18:07:46.125Z,2.17
2023-02-17T18:11:49.132Z,2.47
2023-02-17T18:15:51.173Z,3.00
2023-02-17T18:19:54.869Z,3.40
2023-02-17T18:23:56.338Z,2.60
2023-02-17T18:27:57.821Z,3.10
2023-02-17T18:32:00.024Z,2.93
2023-02-17T18:36:14.390Z,3.20
2023-02-17T18:40:18.170Z,3.37
2023-02-17T18:44:19.491Z,3.90
2023-02-17T18:48:20.917Z,3.67
2023-02-17T18:52:22.226Z,3.90
2023-02-17T18:56:27.097Z,3.20
2023-02-17T19:00:28.579Z,4.07
2023-02-17T19:04:29.869Z,4.20
2023-02-17T19:08:31.227Z,3.80
2023-02-17T19:12:34.102Z,3.70
2023-02-17T19:16:35.425Z,3.80
2023-02-17T19:20:36.870Z,3.43
2023-02-17T19:24:40.573Z,4.17
2023-02-17T19:28:42.536Z,3.77
2023-02-17T19:32:43.849Z,3.97
2023-02-17T19:36:45.705Z,4.97
2023-02-17T19:40:47.516Z,4.03
2023-02-17T19:44:48.870Z,5.13
2023-02-17T19:48:50.230Z,4.60
2023-02-17T19:52:51.591Z,4.40
2023-02-17T19:56:53.096Z,4.30
2023-02-17T20:00:54.468Z,4.87
2023-02-17T20:04:55.880Z,5.30
2023-02-17T20:09:00.112Z,5.33
2023-02-17T20:13:01.460Z,4.90
2023-02-17T20:17:02.797Z,5.40
2023-02-17T20:21:05.570Z,6.20
2023-02-17T20:25:07.412Z,5.27
2023-02-17T20:29:09.750Z,5.40
2023-02-17T20:33:12.258Z,5.37
2023-02-17T20:37:13.520Z,5.90
2023-02-17T20:41:18.249Z,5.80
2023-02-17T20:45:19.621Z,5.53
2023-02-17T20:49:21.243Z,5.77
2023-02-17T20:53:23.630Z,6.33
2023-02-17T20:57:26.752Z,7.33
2023-02-17T21:01:28.150Z,6.97
2023-02-17T21:05:29.548Z,6.53
2023-02-17T21:09:30.921Z,6.30
2023-02-17T21:13:32.252Z,6.43
2023-02-17T21:17:33.733Z,6.50
2023-02-17T21:21:35.701Z,5.93
2023-02-17T21:25:37.308Z,6.20
2023-02-17T21:29:41.353Z,6.57
2023-02-17T21:33:48.520Z,6.60
2023-02-17T21:37:50.186Z,6.90
2023-02-17T21:41:51.557Z,7.50
2023-02-17T21:45:52.923Z,7.13
2023-02-17T21:49:54.844Z,8.23
2023-02-17T21:53:56.252Z,6.60
2023-02-17T21:57:57.578Z,5.77
2023-02-17T22:01:58.856Z,6.03
2023-02-17T22:06:00.289Z,7.60
2023-02-17T22:10:02.189Z,6.40
2023-02-17T22:14:11.235Z,6.67
2023-02-17T22:18:12.616Z,6.80
2023-02-17T22:22:13.893Z,8.93
2023-02-17T22:26:17.718Z,8.30
2023-02-17T22:30:19.189Z,7.20
2023-02-17T22:34:20.765Z,7.67
2023-02-17T22:38:22.098Z,9.03
2023-02-17T22:42:23.883Z,9.17
2023-02-17T22:46:26.940Z,8.10
2023-02-17T22:50:28.333Z,7.40
2023-02-17T22:54:30.942Z,8.00
2023-02-17T22:58:33.512Z,8.97
2023-02-17T23:02:34.957Z,9.67
2023-02-17T23:06:37.621Z,9.23
2023-02-17T23:10:42.624Z,6.80
2023-02-17T23:14:43.973Z,8.70
2023-02-17T23:18:45.251Z,9.07
2023-02-17T23:22:46.615Z,9.90
2023-02-17T23:26:48.615Z,8.80
2023-02-17T23:30:50.935Z,7.33
2023-02-17T23:34:52.258Z,9.07
2023-02-17T23:38:55.702Z,8.10
2023-02-17T23:42:57.139Z,10.27
2023-02-17T23:46:58.490Z,8.97
2023-02-17T23:51:02.612Z,9.20
2023-02-17T23:55:05.948Z,10.00
2023-02-17T23:59:07.425Z,8.67
